Anton, CO

1:58 PM MDT on July 07, 2015 (GMT -0600)
APRSWXNET | | Change Station
CLOSE
Current Station
Personal Weather Station
Location: Cope, CO
Elevation: 4750 ft
Nearby Weather Stations

Elev 4750 ft 39.53 °N, 103.02 °W | Updated 20 minutes ago

Mostly Cloudy
Mostly Cloudy
71 °F
Feels Like 77 °F
N
13
Wind Variable Wind from SE
Gusts 22.0 mph

Today
High -- | Low -- °F
--% Chance of Precip.
Yesterday
High -- | Low -- °F
Precip. -- in
5:32 AM 8:23 PM
Waning Gibbous, 62% visible
Pressure 30.03 in
Visibility 9.0 miles
Clouds Scattered Clouds 11000 ft
Heat Index 77 °F
Dew Point 49 °F
Humidity 45%
Rainfall in
Snow Depth Not available.
UV 10 out of 12
Pollen 5.00 out of 12
Air Quality Not available.
Flu Activity Not available.
METAR KAKO 071953Z AUTO 16016G23KT 9SM SCT110 23/09 A3017 RMK AO2 PK WND 13028/1928 SLP167 T02280094

More Conditions Fewer Conditions

Pressure 30.03 in
Visibility 9.0 miles
Clouds Scattered Clouds 11000 ft
Heat Index 77 °F
Dew Point 49 °F
Humidity 45%
Rainfall in
Snow Depth Not available.
UV 10 out of 12
Pollen 5.00 out of 12
Air Quality Not available.
Flu Activity Not available.
METAR KAKO 071953Z AUTO 16016G23KT 9SM SCT110 23/09 A3017 RMK AO2 PK WND 13028/1928 SLP167 T02280094

More Conditions Fewer Conditions

10-Day Weather Forecast

×

Almanac

Astronomy

Jul. 07, 2015 Rise Set
Actual Time
Civil Twilight
Nautical Twilight
Astronomical Twilight
Moon
Length of Visible Light
Length of Day
Tomorrow will be .
, % of the Moon is Illuminated

Today's Extremes

State Highs State Lows

Community

WunderPhotos

Upload Photos

1,835,884 photos uploaded!

WunderBlogs® & News

Nearby

Air Quality

  Air Quality AQ Index Pollutant
Not available.

Snow Depth

Station Depth Elevation

Earthquake Activity

City Distance Mag. Time & Date
Minimum magnitude displayed is 2.5.

Coastal Water Temperatures

Place Temperature

Stations

Nearby Weather Stations

Station Location Temp. Windchill Dew Point Humidity Wind Precip. Elev Updated Type